sensor_id;sensor_type;location;lat;lon;timestamp;temperature;humidity
1337;DHT22;662;48.814;9.318;2023-08-20T00:00:28;26.40;62.60
1337;DHT22;662;48.814;9.318;2023-08-20T00:03:07;26.40;62.70
1337;DHT22;662;48.814;9.318;2023-08-20T00:05:35;26.30;62.70
1337;DHT22;662;48.814;9.318;2023-08-20T00:08:01;26.30;62.90
1337;DHT22;662;48.814;9.318;2023-08-20T00:10:27;26.20;63.10
1337;DHT22;662;48.814;9.318;2023-08-20T00:12:53;26.20;63.30
1337;DHT22;662;48.814;9.318;2023-08-20T00:15:19;26.20;63.30
1337;DHT22;662;48.814;9.318;2023-08-20T00:17:45;26.20;63.30
1337;DHT22;662;48.814;9.318;2023-08-20T00:20:11;26.20;63.30
1337;DHT22;662;48.814;9.318;2023-08-20T00:22:41;26.20;63.40
1337;DHT22;662;48.814;9.318;2023-08-20T00:25:11;26.20;63.50
1337;DHT22;662;48.814;9.318;2023-08-20T00:27:38;26.20;63.60
1337;DHT22;662;48.814;9.318;2023-08-20T00:30:04;26.20;63.70
1337;DHT22;662;48.814;9.318;2023-08-20T00:32:29;26.20;63.70
1337;DHT22;662;48.814;9.318;2023-08-20T00:34:55;26.20;63.60
1337;DHT22;662;48.814;9.318;2023-08-20T00:37:21;26.20;63.70
1337;DHT22;662;48.814;9.318;2023-08-20T00:39:47;26.20;63.70
1337;DHT22;662;48.814;9.318;2023-08-20T00:42:13;26.10;63.60
1337;DHT22;662;48.814;9.318;2023-08-20T00:44:42;26.10;63.70
1337;DHT22;662;48.814;9.318;2023-08-20T00:47:09;26.10;63.70
1337;DHT22;662;48.814;9.318;2023-08-20T00:49:36;26.20;63.80
1337;DHT22;662;48.814;9.318;2023-08-20T00:52:02;26.10;63.80
1337;DHT22;662;48.814;9.318;2023-08-20T00:54:29;26.10;63.80
1337;DHT22;662;48.814;9.318;2023-08-20T00:56:55;26.10;63.90
1337;DHT22;662;48.814;9.318;2023-08-20T00:59:21;26.10;64.10
1337;DHT22;662;48.814;9.318;2023-08-20T01:01:48;26.00;64.00
1337;DHT22;662;48.814;9.318;2023-08-20T01:04:13;26.00;64.10
1337;DHT22;662;48.814;9.318;2023-08-20T01:06:59;26.00;64.10
1337;DHT22;662;48.814;9.318;2023-08-20T01:12:21;25.80;64.40
1337;DHT22;662;48.814;9.318;2023-08-20T01:14:47;25.80;64.50
1337;DHT22;662;48.814;9.318;2023-08-20T01:17:13;25.70;64.60
1337;DHT22;662;48.814;9.318;2023-08-20T01:19:39;25.70;64.80
1337;DHT22;662;48.814;9.318;2023-08-20T01:30:46;25.70;65.10
1337;DHT22;662;48.814;9.318;2023-08-20T01:33:13;25.70;65.10
1337;DHT22;662;48.814;9.318;2023-08-20T01:35:40;25.70;65.10
1337;DHT22;662;48.814;9.318;2023-08-20T01:38:06;25.70;65.10
1337;DHT22;662;48.814;9.318;2023-08-20T01:40:33;25.60;65.80
1337;DHT22;662;48.814;9.318;2023-08-20T01:42:59;25.60;65.10
1337;DHT22;662;48.814;9.318;2023-08-20T01:45:24;25.60;65.10
1337;DHT22;662;48.814;9.318;2023-08-20T01:47:51;25.60;65.20
1337;DHT22;662;48.814;9.318;2023-08-20T01:50:16;25.60;65.40
1337;DHT22;662;48.814;9.318;2023-08-20T01:52:42;25.60;65.40
1337;DHT22;662;48.814;9.318;2023-08-20T01:55:08;25.60;65.50
1337;DHT22;662;48.814;9.318;2023-08-20T01:57:33;25.50;65.70
1337;DHT22;662;48.814;9.318;2023-08-20T01:59:59;25.50;65.90
1337;DHT22;662;48.814;9.318;2023-08-20T02:02:25;25.50;66.00
1337;DHT22;662;48.814;9.318;2023-08-20T02:04:50;25.50;66.10
1337;DHT22;662;48.814;9.318;2023-08-20T02:07:16;25.50;66.10
1337;DHT22;662;48.814;9.318;2023-08-20T02:09:42;25.40;66.00
1337;DHT22;662;48.814;9.318;2023-08-20T02:12:08;25.40;66.00
1337;DHT22;662;48.814;9.318;2023-08-20T02:14:34;25.40;66.00
1337;DHT22;662;48.814;9.318;2023-08-20T02:17:03;25.40;66.00
1337;DHT22;662;48.814;9.318;2023-08-20T02:19:29;25.40;66.10
1337;DHT22;662;48.814;9.318;2023-08-20T02:21:55;25.30;66.00
1337;DHT22;662;48.814;9.318;2023-08-20T02:24:21;25.40;66.10
1337;DHT22;662;48.814;9.318;2023-08-20T02:26:46;25.30;66.00
1337;DHT22;662;48.814;9.318;2023-08-20T02:29:12;25.40;66.10
1337;DHT22;662;48.814;9.318;2023-08-20T02:31:37;25.30;66.00
1337;DHT22;662;48.814;9.318;2023-08-20T02:34:03;25.30;66.10
1337;DHT22;662;48.814;9.318;2023-08-20T02:36:29;25.30;66.00
1337;DHT22;662;48.814;9.318;2023-08-20T02:38:54;25.30;66.00
1337;DHT22;662;48.814;9.318;2023-08-20T02:41:20;25.20;66.00
1337;DHT22;662;48.814;9.318;2023-08-20T02:43:46;25.20;65.90
1337;DHT22;662;48.814;9.318;2023-08-20T02:46:11;25.20;66.00
1337;DHT22;662;48.814;9.318;2023-08-20T02:48:37;25.20;66.00
1337;DHT22;662;48.814;9.318;2023-08-20T02:51:03;25.20;66.00
1337;DHT22;662;48.814;9.318;2023-08-20T02:53:29;25.10;66.00
1337;DHT22;662;48.814;9.318;2023-08-20T02:55:54;25.10;66.10
1337;DHT22;662;48.814;9.318;2023-08-20T02:58:22;25.10;66.20
1337;DHT22;662;48.814;9.318;2023-08-20T03:00:47;25.10;66.30
1337;DHT22;662;48.814;9.318;2023-08-20T03:03:13;25.00;66.20
1337;DHT22;662;48.814;9.318;2023-08-20T03:05:39;25.00;66.40
1337;DHT22;662;48.814;9.318;2023-08-20T03:08:05;25.00;66.50
1337;DHT22;662;48.814;9.318;2023-08-20T03:10:31;25.00;66.60
1337;DHT22;662;48.814;9.318;2023-08-20T03:12:58;24.90;66.70
1337;DHT22;662;48.814;9.318;2023-08-20T03:15:23;24.90;66.70
1337;DHT22;662;48.814;9.318;2023-08-20T03:17:49;24.80;66.90
1337;DHT22;662;48.814;9.318;2023-08-20T03:20:15;24.80;67.20
1337;DHT22;662;48.814;9.318;2023-08-20T03:22:40;24.70;67.40
1337;DHT22;662;48.814;9.318;2023-08-20T03:25:06;24.70;67.80
1337;DHT22;662;48.814;9.318;2023-08-20T03:27:32;24.70;68.00
1337;DHT22;662;48.814;9.318;2023-08-20T03:29:58;24.70;68.20
1337;DHT22;662;48.814;9.318;2023-08-20T03:32:23;24.60;68.10
1337;DHT22;662;48.814;9.318;2023-08-20T03:34:49;24.60;68.10
1337;DHT22;662;48.814;9.318;2023-08-20T03:37:15;24.60;68.10
1337;DHT22;662;48.814;9.318;2023-08-20T03:39:41;24.60;68.10
1337;DHT22;662;48.814;9.318;2023-08-20T03:42:06;24.60;68.00
1337;DHT22;662;48.814;9.318;2023-08-20T03:44:32;24.60;67.90
1337;DHT22;662;48.814;9.318;2023-08-20T03:46:58;24.60;67.70
1337;DHT22;662;48.814;9.318;2023-08-20T03:49:24;24.60;67.60
1337;DHT22;662;48.814;9.318;2023-08-20T03:51:49;24.60;67.60
1337;DHT22;662;48.814;9.318;2023-08-20T03:54:16;24.60;67.50
1337;DHT22;662;48.814;9.318;2023-08-20T03:56:41;24.60;67.50
1337;DHT22;662;48.814;9.318;2023-08-20T03:59:07;24.60;67.50
1337;DHT22;662;48.814;9.318;2023-08-20T04:01:33;24.60;67.50
1337;DHT22;662;48.814;9.318;2023-08-20T04:03:58;24.50;67.40
1337;DHT22;662;48.814;9.318;2023-08-20T04:06:24;24.50;67.50
1337;DHT22;662;48.814;9.318;2023-08-20T04:08:49;24.50;67.50
1337;DHT22;662;48.814;9.318;2023-08-20T04:11:15;24.50;67.60
1337;DHT22;662;48.814;9.318;2023-08-20T04:13:41;24.40;67.50
1337;DHT22;662;48.814;9.318;2023-08-20T04:16:09;24.40;67.70
1337;DHT22;662;48.814;9.318;2023-08-20T04:18:35;24.40;67.70
1337;DHT22;662;48.814;9.318;2023-08-20T04:21:00;24.40;67.90
1337;DHT22;662;48.814;9.318;2023-08-20T04:23:26;24.40;68.00
1337;DHT22;662;48.814;9.318;2023-08-20T04:25:52;24.30;68.10
1337;DHT22;662;48.814;9.318;2023-08-20T04:28:17;24.30;68.10
1337;DHT22;662;48.814;9.318;2023-08-20T04:30:43;24.30;68.20
1337;DHT22;662;48.814;9.318;2023-08-20T04:33:19;24.30;68.20
1337;DHT22;662;48.814;9.318;2023-08-20T04:35:45;24.30;68.20
1337;DHT22;662;48.814;9.318;2023-08-20T04:38:10;24.30;68.30
1337;DHT22;662;48.814;9.318;2023-08-20T04:40:36;24.30;68.40
1337;DHT22;662;48.814;9.318;2023-08-20T04:43:01;24.30;68.40
1337;DHT22;662;48.814;9.318;2023-08-20T04:45:27;24.30;68.40
1337;DHT22;662;48.814;9.318;2023-08-20T04:47:53;24.30;68.40
1337;DHT22;662;48.814;9.318;2023-08-20T04:50:18;24.30;68.50
1337;DHT22;662;48.814;9.318;2023-08-20T04:52:44;24.20;68.40
1337;DHT22;662;48.814;9.318;2023-08-20T04:55:09;24.30;68.40
1337;DHT22;662;48.814;9.318;2023-08-20T04:57:35;24.30;68.40
1337;DHT22;662;48.814;9.318;2023-08-20T05:00:01;24.20;68.20
1337;DHT22;662;48.814;9.318;2023-08-20T05:02:26;24.30;68.40
1337;DHT22;662;48.814;9.318;2023-08-20T05:04:52;24.30;68.50
1337;DHT22;662;48.814;9.318;2023-08-20T05:07:17;24.30;68.50
1337;DHT22;662;48.814;9.318;2023-08-20T05:09:43;24.30;68.50
1337;DHT22;662;48.814;9.318;2023-08-20T05:12:09;24.30;68.40
1337;DHT22;662;48.814;9.318;2023-08-20T05:14:35;24.30;68.40
1337;DHT22;662;48.814;9.318;2023-08-20T05:17:01;24.40;68.40
1337;DHT22;662;48.814;9.318;2023-08-20T05:19:26;24.40;68.30
1337;DHT22;662;48.814;9.318;2023-08-20T05:21:52;24.40;68.10
1337;DHT22;662;48.814;9.318;2023-08-20T05:24:22;24.40;68.10
1337;DHT22;662;48.814;9.318;2023-08-20T05:26:49;24.50;68.10
1337;DHT22;662;48.814;9.318;2023-08-20T05:29:15;24.40;68.10
1337;DHT22;662;48.814;9.318;2023-08-20T05:31:40;24.40;68.10
1337;DHT22;662;48.814;9.318;2023-08-20T05:34:06;24.50;68.20
1337;DHT22;662;48.814;9.318;2023-08-20T05:36:32;24.50;68.20
1337;DHT22;662;48.814;9.318;2023-08-20T05:38:58;24.50;68.30
1337;DHT22;662;48.814;9.318;2023-08-20T05:41:24;24.50;68.30
1337;DHT22;662;48.814;9.318;2023-08-20T05:43:50;24.50;68.40
1337;DHT22;662;48.814;9.318;2023-08-20T05:46:16;24.50;68.40
1337;DHT22;662;48.814;9.318;2023-08-20T05:48:41;24.50;68.40
1337;DHT22;662;48.814;9.318;2023-08-20T05:51:07;24.50;68.40
1337;DHT22;662;48.814;9.318;2023-08-20T05:53:33;24.50;68.50
1337;DHT22;662;48.814;9.318;2023-08-20T05:55:58;24.60;68.50
1337;DHT22;662;48.814;9.318;2023-08-20T05:58:24;24.60;68.60
1337;DHT22;662;48.814;9.318;2023-08-20T06:00:49;24.60;68.50
1337;DHT22;662;48.814;9.318;2023-08-20T06:03:15;24.60;68.50
1337;DHT22;662;48.814;9.318;2023-08-20T06:05:40;24.70;68.70
1337;DHT22;662;48.814;9.318;2023-08-20T06:08:06;24.70;68.60
1337;DHT22;662;48.814;9.318;2023-08-20T06:10:31;24.70;68.80
1337;DHT22;662;48.814;9.318;2023-08-20T06:12:57;24.70;68.70
1337;DHT22;662;48.814;9.318;2023-08-20T06:15:23;24.80;68.70
1337;DHT22;662;48.814;9.318;2023-08-20T06:17:48;24.80;68.80
1337;DHT22;662;48.814;9.318;2023-08-20T06:20:14;24.90;68.90
1337;DHT22;662;48.814;9.318;2023-08-20T06:22:39;24.90;68.70
1337;DHT22;662;48.814;9.318;2023-08-20T06:25:05;25.00;68.70
1337;DHT22;662;48.814;9.318;2023-08-20T06:27:31;25.10;68.70
1337;DHT22;662;48.814;9.318;2023-08-20T06:29:57;25.20;68.70
1337;DHT22;662;48.814;9.318;2023-08-20T06:32:24;25.20;68.50
1337;DHT22;662;48.814;9.318;2023-08-20T06:34:49;25.30;68.30
1337;DHT22;662;48.814;9.318;2023-08-20T06:37:15;25.30;68.10
1337;DHT22;662;48.814;9.318;2023-08-20T06:39:40;25.40;68.10
1337;DHT22;662;48.814;9.318;2023-08-20T06:42:06;25.50;68.00
1337;DHT22;662;48.814;9.318;2023-08-20T06:44:34;25.60;67.80
1337;DHT22;662;48.814;9.318;2023-08-20T06:47:01;25.60;67.80
1337;DHT22;662;48.814;9.318;2023-08-20T06:49:27;25.70;67.70
1337;DHT22;662;48.814;9.318;2023-08-20T06:51:52;25.70;67.50
1337;DHT22;662;48.814;9.318;2023-08-20T06:54:18;25.80;67.40
1337;DHT22;662;48.814;9.318;2023-08-20T06:56:43;25.80;67.30
1337;DHT22;662;48.814;9.318;2023-08-20T06:59:09;25.90;67.40
1337;DHT22;662;48.814;9.318;2023-08-20T07:01:35;25.90;67.30
1337;DHT22;662;48.814;9.318;2023-08-20T07:04:01;26.00;67.10
1337;DHT22;662;48.814;9.318;2023-08-20T07:06:27;26.10;66.80
1337;DHT22;662;48.814;9.318;2023-08-20T07:08:53;26.20;66.70
1337;DHT22;662;48.814;9.318;2023-08-20T07:11:18;26.20;66.50
1337;DHT22;662;48.814;9.318;2023-08-20T07:13:44;26.40;66.60
1337;DHT22;662;48.814;9.318;2023-08-20T07:16:10;26.40;66.30
1337;DHT22;662;48.814;9.318;2023-08-20T07:18:36;26.40;66.00
1337;DHT22;662;48.814;9.318;2023-08-20T07:21:01;26.50;65.80
1337;DHT22;662;48.814;9.318;2023-08-20T07:23:27;26.60;65.70
1337;DHT22;662;48.814;9.318;2023-08-20T07:26:04;26.70;65.40
1337;DHT22;662;48.814;9.318;2023-08-20T07:28:30;26.80;65.50
1337;DHT22;662;48.814;9.318;2023-08-20T07:31:14;26.80;65.30
1337;DHT22;662;48.814;9.318;2023-08-20T07:33:40;26.90;65.20
1337;DHT22;662;48.814;9.318;2023-08-20T07:36:06;27.00;65.00
1337;DHT22;662;48.814;9.318;2023-08-20T07:38:31;27.00;64.90
1337;DHT22;662;48.814;9.318;2023-08-20T07:40:57;27.10;64.70
1337;DHT22;662;48.814;9.318;2023-08-20T07:43:24;27.20;64.60
1337;DHT22;662;48.814;9.318;2023-08-20T07:45:50;27.30;64.40
1337;DHT22;662;48.814;9.318;2023-08-20T07:48:15;27.40;64.30
1337;DHT22;662;48.814;9.318;2023-08-20T07:50:41;27.40;64.00
1337;DHT22;662;48.814;9.318;2023-08-20T07:53:06;27.50;63.80
1337;DHT22;662;48.814;9.318;2023-08-20T07:55:32;27.60;63.50
1337;DHT22;662;48.814;9.318;2023-08-20T07:57:58;27.70;63.40
1337;DHT22;662;48.814;9.318;2023-08-20T08:00:24;27.90;63.30
1337;DHT22;662;48.814;9.318;2023-08-20T08:02:50;28.00;63.00
1337;DHT22;662;48.814;9.318;2023-08-20T08:05:15;28.10;62.90
1337;DHT22;662;48.814;9.318;2023-08-20T08:07:41;28.20;62.70
1337;DHT22;662;48.814;9.318;2023-08-20T08:10:07;28.30;62.50
1337;DHT22;662;48.814;9.318;2023-08-20T08:12:33;28.40;62.30
1337;DHT22;662;48.814;9.318;2023-08-20T08:14:58;28.40;62.00
1337;DHT22;662;48.814;9.318;2023-08-20T08:17:24;28.50;61.70
1337;DHT22;662;48.814;9.318;2023-08-20T08:19:49;28.60;61.50
1337;DHT22;662;48.814;9.318;2023-08-20T08:22:15;28.60;61.30
1337;DHT22;662;48.814;9.318;2023-08-20T08:24:41;28.70;61.10
1337;DHT22;662;48.814;9.318;2023-08-20T08:27:07;28.80;61.10
1337;DHT22;662;48.814;9.318;2023-08-20T08:29:33;28.90;61.00
1337;DHT22;662;48.814;9.318;2023-08-20T08:32:03;28.90;60.70
1337;DHT22;662;48.814;9.318;2023-08-20T08:34:29;29.00;60.70
1337;DHT22;662;48.814;9.318;2023-08-20T08:36:54;29.10;60.50
1337;DHT22;662;48.814;9.318;2023-08-20T08:39:20;29.20;60.70
1337;DHT22;662;48.814;9.318;2023-08-20T08:41:50;29.30;60.20
1337;DHT22;662;48.814;9.318;2023-08-20T08:44:16;29.40;59.70
1337;DHT22;662;48.814;9.318;2023-08-20T08:46:42;29.50;59.00
1337;DHT22;662;48.814;9.318;2023-08-20T08:49:11;29.60;58.90
1337;DHT22;662;48.814;9.318;2023-08-20T08:51:37;29.70;58.90
1337;DHT22;662;48.814;9.318;2023-08-20T08:54:04;29.80;58.60
1337;DHT22;662;48.814;9.318;2023-08-20T08:56:30;29.90;58.60
1337;DHT22;662;48.814;9.318;2023-08-20T08:58:55;30.00;58.50
1337;DHT22;662;48.814;9.318;2023-08-20T09:01:21;30.10;58.10
1337;DHT22;662;48.814;9.318;2023-08-20T09:03:47;30.20;58.00
1337;DHT22;662;48.814;9.318;2023-08-20T09:06:13;30.40;58.00
1337;DHT22;662;48.814;9.318;2023-08-20T09:08:38;30.50;57.80
1337;DHT22;662;48.814;9.318;2023-08-20T09:11:04;30.60;57.50
1337;DHT22;662;48.814;9.318;2023-08-20T09:13:41;30.90;57.70
1337;DHT22;662;48.814;9.318;2023-08-20T09:16:11;31.30;56.70
1337;DHT22;662;48.814;9.318;2023-08-20T09:18:41;32.00;55.70
1337;DHT22;662;48.814;9.318;2023-08-20T09:21:11;32.70;54.20
1337;DHT22;662;48.814;9.318;2023-08-20T09:23:38;33.40;52.40
1337;DHT22;662;48.814;9.318;2023-08-20T09:26:05;34.50;50.50
1337;DHT22;662;48.814;9.318;2023-08-20T09:28:45;35.70;48.10
1337;DHT22;662;48.814;9.318;2023-08-20T09:31:11;36.90;45.80
1337;DHT22;662;48.814;9.318;2023-08-20T09:33:55;37.80;44.10
1337;DHT22;662;48.814;9.318;2023-08-20T09:36:30;38.60;42.10
1337;DHT22;662;48.814;9.318;2023-08-20T09:38:56;39.40;40.40
1337;DHT22;662;48.814;9.318;2023-08-20T09:41:23;40.20;39.00
1337;DHT22;662;48.814;9.318;2023-08-20T09:43:48;40.90;37.70
1337;DHT22;662;48.814;9.318;2023-08-20T09:46:20;41.40;36.40
1337;DHT22;662;48.814;9.318;2023-08-20T09:48:48;41.70;35.30
1337;DHT22;662;48.814;9.318;2023-08-20T09:51:21;42.10;34.00
1337;DHT22;662;48.814;9.318;2023-08-20T09:54:00;41.90;33.90
1337;DHT22;662;48.814;9.318;2023-08-20T09:56:37;41.70;34.10
1337;DHT22;662;48.814;9.318;2023-08-20T09:59:04;41.10;34.30
1337;DHT22;662;48.814;9.318;2023-08-20T10:01:30;40.80;34.90
1337;DHT22;662;48.814;9.318;2023-08-20T10:03:56;40.90;34.70
1337;DHT22;662;48.814;9.318;2023-08-20T10:06:23;41.20;34.60
1337;DHT22;662;48.814;9.318;2023-08-20T10:08:51;41.50;33.90
1337;DHT22;662;48.814;9.318;2023-08-20T10:11:17;41.60;33.50
1337;DHT22;662;48.814;9.318;2023-08-20T10:13:43;41.70;33.50
1337;DHT22;662;48.814;9.318;2023-08-20T10:16:12;41.70;33.10
1337;DHT22;662;48.814;9.318;2023-08-20T10:18:39;41.70;33.00
1337;DHT22;662;48.814;9.318;2023-08-20T10:21:05;41.70;33.70
1337;DHT22;662;48.814;9.318;2023-08-20T10:23:33;41.80;33.30
1337;DHT22;662;48.814;9.318;2023-08-20T10:26:09;42.00;32.40
1337;DHT22;662;48.814;9.318;2023-08-20T10:28:35;42.20;31.80
1337;DHT22;662;48.814;9.318;2023-08-20T10:31:05;42.40;31.40
1337;DHT22;662;48.814;9.318;2023-08-20T10:33:55;42.60;32.00
1337;DHT22;662;48.814;9.318;2023-08-20T10:36:22;42.70;31.30
1337;DHT22;662;48.814;9.318;2023-08-20T10:38:54;42.70;30.90
1337;DHT22;662;48.814;9.318;2023-08-20T10:41:25;42.60;30.20
1337;DHT22;662;48.814;9.318;2023-08-20T10:43:51;42.60;30.60
1337;DHT22;662;48.814;9.318;2023-08-20T10:46:19;42.20;30.60
1337;DHT22;662;48.814;9.318;2023-08-20T10:48:50;41.80;31.20
1337;DHT22;662;48.814;9.318;2023-08-20T10:51:39;41.30;31.90
1337;DHT22;662;48.814;9.318;2023-08-20T10:54:07;40.70;32.70
1337;DHT22;662;48.814;9.318;2023-08-20T10:56:49;40.10;33.90
1337;DHT22;662;48.814;9.318;2023-08-20T10:59:26;39.50;34.60
1337;DHT22;662;48.814;9.318;2023-08-20T11:01:57;38.90;35.60
1337;DHT22;662;48.814;9.318;2023-08-20T11:04:24;38.60;36.80
1337;DHT22;662;48.814;9.318;2023-08-20T11:06:55;38.70;37.20
1337;DHT22;662;48.814;9.318;2023-08-20T11:09:25;39.00;36.90
1337;DHT22;662;48.814;9.318;2023-08-20T11:11:52;39.60;35.90
1337;DHT22;662;48.814;9.318;2023-08-20T11:14:19;40.10;34.80
1337;DHT22;662;48.814;9.318;2023-08-20T11:16:46;40.60;34.00
1337;DHT22;662;48.814;9.318;2023-08-20T11:19:13;41.10;33.30
1337;DHT22;662;48.814;9.318;2023-08-20T11:21:40;41.50;32.00
1337;DHT22;662;48.814;9.318;2023-08-20T11:24:07;41.70;31.10
1337;DHT22;662;48.814;9.318;2023-08-20T11:26:34;42.10;31.30
1337;DHT22;662;48.814;9.318;2023-08-20T11:29:01;42.30;31.10
1337;DHT22;662;48.814;9.318;2023-08-20T11:31:27;42.70;30.60
1337;DHT22;662;48.814;9.318;2023-08-20T11:33:53;43.00;29.80
1337;DHT22;662;48.814;9.318;2023-08-20T11:36:22;43.30;29.30
1337;DHT22;662;48.814;9.318;2023-08-20T11:38:51;43.60;29.30
1337;DHT22;662;48.814;9.318;2023-08-20T11:41:24;43.80;29.00
1337;DHT22;662;48.814;9.318;2023-08-20T11:43:51;44.00;29.10
1337;DHT22;662;48.814;9.318;2023-08-20T11:46:19;44.10;28.70
1337;DHT22;662;48.814;9.318;2023-08-20T11:51:28;44.20;28.20
1337;DHT22;662;48.814;9.318;2023-08-20T11:53:55;44.20;28.50
1337;DHT22;662;48.814;9.318;2023-08-20T11:56:21;44.30;28.70
1337;DHT22;662;48.814;9.318;2023-08-20T11:58:50;44.30;28.40
1337;DHT22;662;48.814;9.318;2023-08-20T12:01:18;44.30;28.60
1337;DHT22;662;48.814;9.318;2023-08-20T12:03:44;44.40;28.10
1337;DHT22;662;48.814;9.318;2023-08-20T12:06:20;44.40;28.20
1337;DHT22;662;48.814;9.318;2023-08-20T12:08:48;44.40;28.40
1337;DHT22;662;48.814;9.318;2023-08-20T12:11:13;44.50;28.80
1337;DHT22;662;48.814;9.318;2023-08-20T12:13:40;44.70;28.50
1337;DHT22;662;48.814;9.318;2023-08-20T12:16:06;44.80;27.80
1337;DHT22;662;48.814;9.318;2023-08-20T12:18:31;44.90;27.80
1337;DHT22;662;48.814;9.318;2023-08-20T12:20:57;45.10;27.60
1337;DHT22;662;48.814;9.318;2023-08-20T12:23:23;45.10;27.10
1337;DHT22;662;48.814;9.318;2023-08-20T12:25:51;45.20;27.30
1337;DHT22;662;48.814;9.318;2023-08-20T12:28:17;45.30;26.90
1337;DHT22;662;48.814;9.318;2023-08-20T12:30:43;45.40;27.10
1337;DHT22;662;48.814;9.318;2023-08-20T12:33:10;45.60;27.10
1337;DHT22;662;48.814;9.318;2023-08-20T12:35:36;45.80;26.10
1337;DHT22;662;48.814;9.318;2023-08-20T12:38:03;45.90;26.60
1337;DHT22;662;48.814;9.318;2023-08-20T12:40:29;46.10;26.10
1337;DHT22;662;48.814;9.318;2023-08-20T12:42:55;46.10;25.50
1337;DHT22;662;48.814;9.318;2023-08-20T12:45:20;46.00;25.60
1337;DHT22;662;48.814;9.318;2023-08-20T12:47:46;46.00;25.90
1337;DHT22;662;48.814;9.318;2023-08-20T12:50:12;45.90;25.90
1337;DHT22;662;48.814;9.318;2023-08-20T12:52:39;45.80;25.80
1337;DHT22;662;48.814;9.318;2023-08-20T12:55:05;45.80;26.10
1337;DHT22;662;48.814;9.318;2023-08-20T12:57:33;45.80;26.20
1337;DHT22;662;48.814;9.318;2023-08-20T12:59:59;45.90;26.20
1337;DHT22;662;48.814;9.318;2023-08-20T13:02:25;45.90;25.50
1337;DHT22;662;48.814;9.318;2023-08-20T13:04:51;46.00;25.70
1337;DHT22;662;48.814;9.318;2023-08-20T13:07:17;45.90;25.90
1337;DHT22;662;48.814;9.318;2023-08-20T13:09:43;45.80;25.60
1337;DHT22;662;48.814;9.318;2023-08-20T13:12:10;45.40;26.10
1337;DHT22;662;48.814;9.318;2023-08-20T13:14:39;45.30;25.90
1337;DHT22;662;48.814;9.318;2023-08-20T13:17:05;45.20;26.60
1337;DHT22;662;48.814;9.318;2023-08-20T13:19:31;45.10;26.60
1337;DHT22;662;48.814;9.318;2023-08-20T13:21:56;45.00;26.10
1337;DHT22;662;48.814;9.318;2023-08-20T13:24:22;45.00;26.50
1337;DHT22;662;48.814;9.318;2023-08-20T13:26:47;44.90;26.10
1337;DHT22;662;48.814;9.318;2023-08-20T13:29:13;45.00;26.50
1337;DHT22;662;48.814;9.318;2023-08-20T13:31:39;45.10;26.20
1337;DHT22;662;48.814;9.318;2023-08-20T13:34:04;45.10;26.10
1337;DHT22;662;48.814;9.318;2023-08-20T13:36:30;45.20;25.70
1337;DHT22;662;48.814;9.318;2023-08-20T13:38:55;45.10;26.30
1337;DHT22;662;48.814;9.318;2023-08-20T13:41:21;45.30;26.60
1337;DHT22;662;48.814;9.318;2023-08-20T13:43:47;45.40;25.90
1337;DHT22;662;48.814;9.318;2023-08-20T13:46:12;45.40;25.50
1337;DHT22;662;48.814;9.318;2023-08-20T13:48:38;45.50;25.90
1337;DHT22;662;48.814;9.318;2023-08-20T13:51:04;45.50;26.30
1337;DHT22;662;48.814;9.318;2023-08-20T13:53:29;45.60;26.40
1337;DHT22;662;48.814;9.318;2023-08-20T13:55:58;45.60;26.30
1337;DHT22;662;48.814;9.318;2023-08-20T13:58:23;45.60;26.20
1337;DHT22;662;48.814;9.318;2023-08-20T14:00:49;45.60;26.10
1337;DHT22;662;48.814;9.318;2023-08-20T14:03:15;45.60;26.00
1337;DHT22;662;48.814;9.318;2023-08-20T14:05:40;45.60;26.10
1337;DHT22;662;48.814;9.318;2023-08-20T14:08:06;45.50;26.00
1337;DHT22;662;48.814;9.318;2023-08-20T14:10:31;45.50;26.10
1337;DHT22;662;48.814;9.318;2023-08-20T14:12:57;45.30;26.10
1337;DHT22;662;48.814;9.318;2023-08-20T14:15:22;45.20;26.80
1337;DHT22;662;48.814;9.318;2023-08-20T14:17:48;45.20;26.50
1337;DHT22;662;48.814;9.318;2023-08-20T14:20:14;45.00;26.30
1337;DHT22;662;48.814;9.318;2023-08-20T14:22:40;44.80;26.50
1337;DHT22;662;48.814;9.318;2023-08-20T14:25:05;44.80;26.90
1337;DHT22;662;48.814;9.318;2023-08-20T14:27:31;44.80;26.80
1337;DHT22;662;48.814;9.318;2023-08-20T14:29:57;44.80;26.80
1337;DHT22;662;48.814;9.318;2023-08-20T14:32:22;44.80;26.80
1337;DHT22;662;48.814;9.318;2023-08-20T14:34:48;44.90;26.80
1337;DHT22;662;48.814;9.318;2023-08-20T14:37:13;44.90;26.60
1337;DHT22;662;48.814;9.318;2023-08-20T14:39:39;44.90;26.60
1337;DHT22;662;48.814;9.318;2023-08-20T14:42:05;44.80;26.90
1337;DHT22;662;48.814;9.318;2023-08-20T14:44:31;44.70;27.20
1337;DHT22;662;48.814;9.318;2023-08-20T14:46:56;44.50;27.60
1337;DHT22;662;48.814;9.318;2023-08-20T14:49:22;44.40;28.00
1337;DHT22;662;48.814;9.318;2023-08-20T14:51:48;44.10;28.20
1337;DHT22;662;48.814;9.318;2023-08-20T14:54:14;43.90;28.60
1337;DHT22;662;48.814;9.318;2023-08-20T14:56:40;43.70;28.90
1337;DHT22;662;48.814;9.318;2023-08-20T14:59:05;43.40;29.30
1337;DHT22;662;48.814;9.318;2023-08-20T15:01:31;42.90;29.50
1337;DHT22;662;48.814;9.318;2023-08-20T15:03:57;42.70;30.00
1337;DHT22;662;48.814;9.318;2023-08-20T15:06:22;42.30;30.20
1337;DHT22;662;48.814;9.318;2023-08-20T15:08:50;41.80;30.70
1337;DHT22;662;48.814;9.318;2023-08-20T15:11:16;41.60;31.20
1337;DHT22;662;48.814;9.318;2023-08-20T15:13:41;41.30;31.50
1337;DHT22;662;48.814;9.318;2023-08-20T15:16:07;41.00;32.20
1337;DHT22;662;48.814;9.318;2023-08-20T15:18:34;40.70;32.20
1337;DHT22;662;48.814;9.318;2023-08-20T15:21:00;40.30;32.20
1337;DHT22;662;48.814;9.318;2023-08-20T15:23:27;39.80;33.00
1337;DHT22;662;48.814;9.318;2023-08-20T15:25:54;39.40;33.70
1337;DHT22;662;48.814;9.318;2023-08-20T15:28:21;39.00;34.20
1337;DHT22;662;48.814;9.318;2023-08-20T15:30:48;38.70;34.80
1337;DHT22;662;48.814;9.318;2023-08-20T15:33:14;38.50;35.20
1337;DHT22;662;48.814;9.318;2023-08-20T15:35:40;38.40;35.50
1337;DHT22;662;48.814;9.318;2023-08-20T15:38:06;38.40;35.50
1337;DHT22;662;48.814;9.318;2023-08-20T15:40:32;38.40;35.70
1337;DHT22;662;48.814;9.318;2023-08-20T15:42:57;38.40;35.70
1337;DHT22;662;48.814;9.318;2023-08-20T15:45:23;38.30;35.30
1337;DHT22;662;48.814;9.318;2023-08-20T15:48:19;38.10;34.90
1337;DHT22;662;48.814;9.318;2023-08-20T15:54:07;37.50;35.70
1337;DHT22;662;48.814;9.318;2023-08-20T15:56:32;37.20;35.90
1337;DHT22;662;48.814;9.318;2023-08-20T15:58:58;37.00;36.20
1337;DHT22;662;48.814;9.318;2023-08-20T16:01:23;36.90;36.70
1337;DHT22;662;48.814;9.318;2023-08-20T16:03:50;36.70;36.90
1337;DHT22;662;48.814;9.318;2023-08-20T16:06:16;36.60;37.10
1337;DHT22;662;48.814;9.318;2023-08-20T16:08:41;36.40;37.20
1337;DHT22;662;48.814;9.318;2023-08-20T16:11:07;36.20;37.20
1337;DHT22;662;48.814;9.318;2023-08-20T16:13:33;36.10;37.20
1337;DHT22;662;48.814;9.318;2023-08-20T16:15:58;35.90;37.40
1337;DHT22;662;48.814;9.318;2023-08-20T16:18:24;35.80;37.40
1337;DHT22;662;48.814;9.318;2023-08-20T16:20:49;35.60;37.60
1337;DHT22;662;48.814;9.318;2023-08-20T16:23:15;35.50;37.60
1337;DHT22;662;48.814;9.318;2023-08-20T16:25:41;35.40;37.90
1337;DHT22;662;48.814;9.318;2023-08-20T16:28:08;35.30;38.00
1337;DHT22;662;48.814;9.318;2023-08-20T16:30:37;35.10;38.00